sensor_id;sensor_type;location;lat;lon;timestamp;temperature;humidity
9824;DHT22;4951;50.778;7.196;2024-02-14T00:02:19;8.70;1.00
9824;DHT22;4951;50.778;7.196;2024-02-14T00:04:48;8.70;1.00
9824;DHT22;4951;50.778;7.196;2024-02-14T00:07:17;8.80;1.00
9824;DHT22;4951;50.778;7.196;2024-02-14T00:09:45;8.80;1.00
9824;DHT22;4951;50.778;7.196;2024-02-14T00:12:20;8.80;1.00
9824;DHT22;4951;50.778;7.196;2024-02-14T00:14:53;8.80;1.00
9824;DHT22;4951;50.778;7.196;2024-02-14T00:17:27;8.80;1.00
9824;DHT22;4951;50.778;7.196;2024-02-14T00:19:57;8.90;1.00
9824;DHT22;4951;50.778;7.196;2024-02-14T00:22:40;8.90;1.00
9824;DHT22;4951;50.778;7.196;2024-02-14T00:25:11;8.90;1.00
9824;DHT22;4951;50.778;7.196;2024-02-14T00:27:46;8.90;1.00
9824;DHT22;4951;50.778;7.196;2024-02-14T00:30:16;8.90;1.00
9824;DHT22;4951;50.778;7.196;2024-02-14T00:32:45;9.00;99.90
9824;DHT22;4951;50.778;7.196;2024-02-14T00:35:14;9.00;99.90
9824;DHT22;4951;50.778;7.196;2024-02-14T00:37:44;9.00;99.90
9824;DHT22;4951;50.778;7.196;2024-02-14T00:40:12;9.10;99.90
9824;DHT22;4951;50.778;7.196;2024-02-14T00:42:41;9.10;99.90
9824;DHT22;4951;50.778;7.196;2024-02-14T00:45:12;9.10;99.90
9824;DHT22;4951;50.778;7.196;2024-02-14T00:47:42;9.10;99.90
9824;DHT22;4951;50.778;7.196;2024-02-14T00:50:12;9.10;99.90
9824;DHT22;4951;50.778;7.196;2024-02-14T00:52:54;9.10;99.90
9824;DHT22;4951;50.778;7.196;2024-02-14T00:55:31;9.10;1.00
9824;DHT22;4951;50.778;7.196;2024-02-14T00:58:02;9.10;1.00
9824;DHT22;4951;50.778;7.196;2024-02-14T01:00:39;9.10;1.00
9824;DHT22;4951;50.778;7.196;2024-02-14T01:03:07;9.10;1.00
9824;DHT22;4951;50.778;7.196;2024-02-14T01:05:43;9.10;1.00
9824;DHT22;4951;50.778;7.196;2024-02-14T01:08:12;9.10;1.00
9824;DHT22;4951;50.778;7.196;2024-02-14T01:10:41;9.10;1.00
9824;DHT22;4951;50.778;7.196;2024-02-14T01:13:15;9.10;1.00
9824;DHT22;4951;50.778;7.196;2024-02-14T01:15:47;9.10;1.00
9824;DHT22;4951;50.778;7.196;2024-02-14T01:18:18;9.10;1.00
9824;DHT22;4951;50.778;7.196;2024-02-14T01:20:56;9.10;1.00
9824;DHT22;4951;50.778;7.196;2024-02-14T01:23:27;9.10;1.00
9824;DHT22;4951;50.778;7.196;2024-02-14T01:25:59;9.10;1.00
9824;DHT22;4951;50.778;7.196;2024-02-14T01:28:28;9.10;94.70
9824;DHT22;4951;50.778;7.196;2024-02-14T01:31:00;9.10;99.90
9824;DHT22;4951;50.778;7.196;2024-02-14T01:33:38;9.10;99.90
9824;DHT22;4951;50.778;7.196;2024-02-14T01:36:08;9.00;99.90
9824;DHT22;4951;50.778;7.196;2024-02-14T01:38:38;9.10;99.90
9824;DHT22;4951;50.778;7.196;2024-02-14T01:41:06;9.10;99.90
9824;DHT22;4951;50.778;7.196;2024-02-14T01:43:53;9.10;99.90
9824;DHT22;4951;50.778;7.196;2024-02-14T01:46:32;9.10;1.00
9824;DHT22;4951;50.778;7.196;2024-02-14T01:49:07;9.10;1.00
9824;DHT22;4951;50.778;7.196;2024-02-14T01:51:43;9.10;1.00
9824;DHT22;4951;50.778;7.196;2024-02-14T01:54:14;9.10;1.00
9824;DHT22;4951;50.778;7.196;2024-02-14T01:56:45;9.10;1.00
9824;DHT22;4951;50.778;7.196;2024-02-14T01:59:15;9.10;23.80
9824;DHT22;4951;50.778;7.196;2024-02-14T02:01:47;9.10;99.90
9824;DHT22;4951;50.778;7.196;2024-02-14T02:04:14;9.10;99.90
9824;DHT22;4951;50.778;7.196;2024-02-14T02:06:48;9.10;99.90
9824;DHT22;4951;50.778;7.196;2024-02-14T02:09:17;9.10;99.90
9824;DHT22;4951;50.778;7.196;2024-02-14T02:11:49;9.00;1.00
9824;DHT22;4951;50.778;7.196;2024-02-14T02:14:18;9.00;1.00
9824;DHT22;4951;50.778;7.196;2024-02-14T02:16:48;9.00;1.00
9824;DHT22;4951;50.778;7.196;2024-02-14T02:19:17;9.10;1.00
9824;DHT22;4951;50.778;7.196;2024-02-14T02:21:46;9.10;1.00
9824;DHT22;4951;50.778;7.196;2024-02-14T02:24:16;9.00;99.90
9824;DHT22;4951;50.778;7.196;2024-02-14T02:26:45;9.00;99.90
9824;DHT22;4951;50.778;7.196;2024-02-14T02:29:14;9.00;1.00
9824;DHT22;4951;50.778;7.196;2024-02-14T02:31:47;9.00;1.00
9824;DHT22;4951;50.778;7.196;2024-02-14T02:34:15;9.00;1.00
9824;DHT22;4951;50.778;7.196;2024-02-14T02:36:44;9.00;1.00
9824;DHT22;4951;50.778;7.196;2024-02-14T02:39:17;9.00;99.90
9824;DHT22;4951;50.778;7.196;2024-02-14T02:41:45;9.00;99.90
9824;DHT22;4951;50.778;7.196;2024-02-14T02:44:18;9.00;1.00
9824;DHT22;4951;50.778;7.196;2024-02-14T02:46:46;9.00;1.00
9824;DHT22;4951;50.778;7.196;2024-02-14T02:49:14;9.00;3.30
9824;DHT22;4951;50.778;7.196;2024-02-14T02:51:43;9.00;99.90
9824;DHT22;4951;50.778;7.196;2024-02-14T02:54:12;9.00;99.90
9824;DHT22;4951;50.778;7.196;2024-02-14T02:56:43;9.00;1.00
9824;DHT22;4951;50.778;7.196;2024-02-14T02:59:11;9.00;1.00
9824;DHT22;4951;50.778;7.196;2024-02-14T03:01:40;9.00;1.00
9824;DHT22;4951;50.778;7.196;2024-02-14T03:04:17;9.00;83.50
9824;DHT22;4951;50.778;7.196;2024-02-14T03:06:46;9.00;99.90
9824;DHT22;4951;50.778;7.196;2024-02-14T03:09:16;9.00;99.90
9824;DHT22;4951;50.778;7.196;2024-02-14T03:11:47;9.00;1.00
9824;DHT22;4951;50.778;7.196;2024-02-14T03:14:24;9.00;1.00
9824;DHT22;4951;50.778;7.196;2024-02-14T03:16:53;9.00;1.00
9824;DHT22;4951;50.778;7.196;2024-02-14T03:19:23;9.00;1.00
9824;DHT22;4951;50.778;7.196;2024-02-14T03:21:52;9.00;1.00
9824;DHT22;4951;50.778;7.196;2024-02-14T03:24:21;9.00;1.00
9824;DHT22;4951;50.778;7.196;2024-02-14T03:26:49;9.10;1.00
9824;DHT22;4951;50.778;7.196;2024-02-14T03:29:20;9.10;1.00
9824;DHT22;4951;50.778;7.196;2024-02-14T03:31:49;9.10;1.00
9824;DHT22;4951;50.778;7.196;2024-02-14T03:34:18;9.10;1.00
9824;DHT22;4951;50.778;7.196;2024-02-14T03:36:47;9.10;1.00
9824;DHT22;4951;50.778;7.196;2024-02-14T03:39:14;9.10;17.10
9824;DHT22;4951;50.778;7.196;2024-02-14T03:41:44;9.10;1.00
9824;DHT22;4951;50.778;7.196;2024-02-14T03:44:15;9.10;1.00
9824;DHT22;4951;50.778;7.196;2024-02-14T03:46:43;9.10;48.90
9824;DHT22;4951;50.778;7.196;2024-02-14T03:49:11;9.10;99.90
9824;DHT22;4951;50.778;7.196;2024-02-14T03:51:40;9.10;99.90
9824;DHT22;4951;50.778;7.196;2024-02-14T03:54:08;9.10;99.90
9824;DHT22;4951;50.778;7.196;2024-02-14T03:56:37;9.10;99.90
9824;DHT22;4951;50.778;7.196;2024-02-14T03:59:06;9.10;99.90
9824;DHT22;4951;50.778;7.196;2024-02-14T04:01:38;9.10;99.90
9824;DHT22;4951;50.778;7.196;2024-02-14T04:04:12;9.10;99.90
9824;DHT22;4951;50.778;7.196;2024-02-14T04:06:43;9.10;99.90
9824;DHT22;4951;50.778;7.196;2024-02-14T04:09:13;9.10;99.90
9824;DHT22;4951;50.778;7.196;2024-02-14T04:11:43;9.10;99.90
9824;DHT22;4951;50.778;7.196;2024-02-14T04:14:10;9.10;99.90
9824;DHT22;4951;50.778;7.196;2024-02-14T04:16:41;9.20;99.90
9824;DHT22;4951;50.778;7.196;2024-02-14T04:19:09;9.10;1.00
9824;DHT22;4951;50.778;7.196;2024-02-14T04:21:42;9.10;1.00
9824;DHT22;4951;50.778;7.196;2024-02-14T04:24:10;9.10;1.00
9824;DHT22;4951;50.778;7.196;2024-02-14T04:26:37;9.10;99.90
9824;DHT22;4951;50.778;7.196;2024-02-14T04:29:05;9.20;1.00
9824;DHT22;4951;50.778;7.196;2024-02-14T04:31:37;9.10;1.00
9824;DHT22;4951;50.778;7.196;2024-02-14T04:34:08;9.20;1.00
9824;DHT22;4951;50.778;7.196;2024-02-14T04:36:37;9.20;1.00
9824;DHT22;4951;50.778;7.196;2024-02-14T04:39:05;9.20;1.00
9824;DHT22;4951;50.778;7.196;2024-02-14T04:41:44;9.20;1.00
9824;DHT22;4951;50.778;7.196;2024-02-14T04:44:13;9.20;1.00
9824;DHT22;4951;50.778;7.196;2024-02-14T04:46:42;9.20;1.00
9824;DHT22;4951;50.778;7.196;2024-02-14T04:49:13;9.20;1.00
9824;DHT22;4951;50.778;7.196;2024-02-14T04:51:41;9.20;1.00
9824;DHT22;4951;50.778;7.196;2024-02-14T04:54:10;9.20;1.00
9824;DHT22;4951;50.778;7.196;2024-02-14T04:56:39;9.20;1.00
9824;DHT22;4951;50.778;7.196;2024-02-14T04:59:07;9.20;1.00
9824;DHT22;4951;50.778;7.196;2024-02-14T05:01:36;9.20;1.00
9824;DHT22;4951;50.778;7.196;2024-02-14T05:04:04;9.20;1.00
9824;DHT22;4951;50.778;7.196;2024-02-14T05:06:34;9.20;1.00
9824;DHT22;4951;50.778;7.196;2024-02-14T05:09:05;9.20;1.00
9824;DHT22;4951;50.778;7.196;2024-02-14T05:11:38;9.20;1.00
9824;DHT22;4951;50.778;7.196;2024-02-14T05:14:08;9.30;1.00
9824;DHT22;4951;50.778;7.196;2024-02-14T05:16:37;9.20;1.00
9824;DHT22;4951;50.778;7.196;2024-02-14T05:19:07;9.30;1.00
9824;DHT22;4951;50.778;7.196;2024-02-14T05:21:39;9.30;1.00
9824;DHT22;4951;50.778;7.196;2024-02-14T05:24:06;9.20;1.00
9824;DHT22;4951;50.778;7.196;2024-02-14T05:26:34;9.20;1.00
9824;DHT22;4951;50.778;7.196;2024-02-14T05:29:04;9.20;1.00
9824;DHT22;4951;50.778;7.196;2024-02-14T05:31:43;9.20;1.00
9824;DHT22;4951;50.778;7.196;2024-02-14T05:34:15;9.20;3.90
9824;DHT22;4951;50.778;7.196;2024-02-14T05:36:45;9.20;16.40
9824;DHT22;4951;50.778;7.196;2024-02-14T05:39:15;9.30;21.80
9824;DHT22;4951;50.778;7.196;2024-02-14T05:41:43;9.30;82.70
9824;DHT22;4951;50.778;7.196;2024-02-14T05:44:13;9.30;99.90
9824;DHT22;4951;50.778;7.196;2024-02-14T05:46:42;9.30;99.90
9824;DHT22;4951;50.778;7.196;2024-02-14T05:49:10;9.30;99.90
9824;DHT22;4951;50.778;7.196;2024-02-14T05:51:40;9.30;99.90
9824;DHT22;4951;50.778;7.196;2024-02-14T05:54:10;9.30;99.90
9824;DHT22;4951;50.778;7.196;2024-02-14T05:56:39;9.30;99.90
9824;DHT22;4951;50.778;7.196;2024-02-14T05:59:09;9.30;99.90
9824;DHT22;4951;50.778;7.196;2024-02-14T06:01:38;9.30;99.90
9824;DHT22;4951;50.778;7.196;2024-02-14T06:04:08;9.30;99.90
9824;DHT22;4951;50.778;7.196;2024-02-14T06:06:39;9.30;99.90
9824;DHT22;4951;50.778;7.196;2024-02-14T06:09:11;9.30;99.90
9824;DHT22;4951;50.778;7.196;2024-02-14T06:11:48;9.30;99.90
9824;DHT22;4951;50.778;7.196;2024-02-14T06:14:18;9.30;99.90
9824;DHT22;4951;50.778;7.196;2024-02-14T06:16:46;9.40;99.90
9824;DHT22;4951;50.778;7.196;2024-02-14T06:19:18;9.40;99.90
9824;DHT22;4951;50.778;7.196;2024-02-14T06:21:49;9.40;99.90
9824;DHT22;4951;50.778;7.196;2024-02-14T06:24:21;9.40;99.90
9824;DHT22;4951;50.778;7.196;2024-02-14T06:26:49;9.40;99.90
9824;DHT22;4951;50.778;7.196;2024-02-14T06:29:29;9.40;1.00
9824;DHT22;4951;50.778;7.196;2024-02-14T06:31:57;9.40;99.90
9824;DHT22;4951;50.778;7.196;2024-02-14T06:34:26;9.30;1.00
9824;DHT22;4951;50.778;7.196;2024-02-14T06:36:55;9.30;1.00
9824;DHT22;4951;50.778;7.196;2024-02-14T06:39:25;9.30;1.00
9824;DHT22;4951;50.778;7.196;2024-02-14T06:41:54;9.30;1.00
9824;DHT22;4951;50.778;7.196;2024-02-14T06:44:22;9.30;1.00
9824;DHT22;4951;50.778;7.196;2024-02-14T06:46:56;9.30;1.00
9824;DHT22;4951;50.778;7.196;2024-02-14T06:49:24;9.30;1.00
9824;DHT22;4951;50.778;7.196;2024-02-14T06:51:54;9.30;1.00
9824;DHT22;4951;50.778;7.196;2024-02-14T06:54:22;9.30;1.00
9824;DHT22;4951;50.778;7.196;2024-02-14T06:56:51;9.30;1.00
9824;DHT22;4951;50.778;7.196;2024-02-14T06:59:20;9.40;1.00
9824;DHT22;4951;50.778;7.196;2024-02-14T07:01:48;9.40;1.00
9824;DHT22;4951;50.778;7.196;2024-02-14T07:04:19;9.40;1.00
9824;DHT22;4951;50.778;7.196;2024-02-14T07:06:55;9.40;1.00
9824;DHT22;4951;50.778;7.196;2024-02-14T07:09:26;9.40;1.00
9824;DHT22;4951;50.778;7.196;2024-02-14T07:12:01;9.40;1.00
9824;DHT22;4951;50.778;7.196;2024-02-14T07:14:31;9.40;1.00
9824;DHT22;4951;50.778;7.196;2024-02-14T07:17:00;9.50;1.00
9824;DHT22;4951;50.778;7.196;2024-02-14T07:19:32;9.50;1.00
9824;DHT22;4951;50.778;7.196;2024-02-14T07:22:03;9.50;1.00
9824;DHT22;4951;50.778;7.196;2024-02-14T07:24:37;9.50;1.00
9824;DHT22;4951;50.778;7.196;2024-02-14T07:27:08;9.60;1.00
9824;DHT22;4951;50.778;7.196;2024-02-14T07:29:38;9.60;1.00
9824;DHT22;4951;50.778;7.196;2024-02-14T07:32:07;9.60;1.00
9824;DHT22;4951;50.778;7.196;2024-02-14T07:34:38;9.60;1.00
9824;DHT22;4951;50.778;7.196;2024-02-14T07:37:08;9.60;1.00
9824;DHT22;4951;50.778;7.196;2024-02-14T07:39:38;9.60;1.00
9824;DHT22;4951;50.778;7.196;2024-02-14T07:42:23;9.70;99.90
9824;DHT22;4951;50.778;7.196;2024-02-14T07:44:59;9.70;99.90
9824;DHT22;4951;50.778;7.196;2024-02-14T07:47:31;9.70;99.90
9824;DHT22;4951;50.778;7.196;2024-02-14T07:49:58;9.80;99.90
9824;DHT22;4951;50.778;7.196;2024-02-14T07:52:26;9.80;99.90
9824;DHT22;4951;50.778;7.196;2024-02-14T07:54:55;9.90;99.90
9824;DHT22;4951;50.778;7.196;2024-02-14T07:57:25;9.90;99.90
9824;DHT22;4951;50.778;7.196;2024-02-14T07:59:57;10.00;99.90
9824;DHT22;4951;50.778;7.196;2024-02-14T08:02:27;10.00;99.90
9824;DHT22;4951;50.778;7.196;2024-02-14T08:04:57;10.00;1.00
9824;DHT22;4951;50.778;7.196;2024-02-14T08:07:29;10.10;1.00
9824;DHT22;4951;50.778;7.196;2024-02-14T08:10:00;10.10;1.00
9824;DHT22;4951;50.778;7.196;2024-02-14T08:12:42;10.20;1.00
9824;DHT22;4951;50.778;7.196;2024-02-14T08:15:13;10.30;1.00
9824;DHT22;4951;50.778;7.196;2024-02-14T08:17:48;10.30;1.00
9824;DHT22;4951;50.778;7.196;2024-02-14T08:20:20;10.30;1.00
9824;DHT22;4951;50.778;7.196;2024-02-14T08:22:49;10.30;99.90
9824;DHT22;4951;50.778;7.196;2024-02-14T08:25:17;10.30;99.90
9824;DHT22;4951;50.778;7.196;2024-02-14T08:27:48;10.30;99.90
9824;DHT22;4951;50.778;7.196;2024-02-14T08:30:18;10.30;99.90
9824;DHT22;4951;50.778;7.196;2024-02-14T08:32:56;10.30;99.90
9824;DHT22;4951;50.778;7.196;2024-02-14T08:35:29;10.30;99.90
9824;DHT22;4951;50.778;7.196;2024-02-14T08:37:57;10.30;99.90
9824;DHT22;4951;50.778;7.196;2024-02-14T08:40:25;10.40;99.90
9824;DHT22;4951;50.778;7.196;2024-02-14T08:42:54;10.40;1.00
9824;DHT22;4951;50.778;7.196;2024-02-14T08:45:22;10.50;99.90
9824;DHT22;4951;50.778;7.196;2024-02-14T08:47:53;10.50;1.00
9824;DHT22;4951;50.778;7.196;2024-02-14T08:50:25;10.50;1.00
9824;DHT22;4951;50.778;7.196;2024-02-14T08:52:55;10.60;1.00
9824;DHT22;4951;50.778;7.196;2024-02-14T08:55:24;10.70;1.00
9824;DHT22;4951;50.778;7.196;2024-02-14T08:57:56;10.70;1.00
9824;DHT22;4951;50.778;7.196;2024-02-14T09:00:25;10.70;1.00
9824;DHT22;4951;50.778;7.196;2024-02-14T09:02:56;10.70;1.00
9824;DHT22;4951;50.778;7.196;2024-02-14T09:05:28;10.80;1.00
9824;DHT22;4951;50.778;7.196;2024-02-14T09:07:56;10.80;1.00
9824;DHT22;4951;50.778;7.196;2024-02-14T09:10:23;10.90;1.00
9824;DHT22;4951;50.778;7.196;2024-02-14T09:12:52;10.90;1.00
9824;DHT22;4951;50.778;7.196;2024-02-14T09:15:23;10.90;99.90
9824;DHT22;4951;50.778;7.196;2024-02-14T09:17:52;10.90;99.90
9824;DHT22;4951;50.778;7.196;2024-02-14T09:20:22;11.00;99.90
9824;DHT22;4951;50.778;7.196;2024-02-14T09:22:49;11.00;99.90
9824;DHT22;4951;50.778;7.196;2024-02-14T09:25:18;11.00;1.00
9824;DHT22;4951;50.778;7.196;2024-02-14T09:27:46;11.10;1.00
9824;DHT22;4951;50.778;7.196;2024-02-14T09:30:17;11.20;99.90
9824;DHT22;4951;50.778;7.196;2024-02-14T09:32:53;11.30;99.90
9824;DHT22;4951;50.778;7.196;2024-02-14T09:35:24;11.40;29.10
9824;DHT22;4951;50.778;7.196;2024-02-14T09:37:53;11.50;1.00
9824;DHT22;4951;50.778;7.196;2024-02-14T09:40:23;11.50;1.00
9824;DHT22;4951;50.778;7.196;2024-02-14T09:42:54;11.60;1.00
9824;DHT22;4951;50.778;7.196;2024-02-14T09:45:25;11.70;59.10
9824;DHT22;4951;50.778;7.196;2024-02-14T09:47:57;11.80;1.00
9824;DHT22;4951;50.778;7.196;2024-02-14T09:50:28;11.80;99.90
9824;DHT22;4951;50.778;7.196;2024-02-14T09:53:02;11.90;1.00
9824;DHT22;4951;50.778;7.196;2024-02-14T09:55:30;12.00;1.00
9824;DHT22;4951;50.778;7.196;2024-02-14T09:58:00;12.20;1.00
9824;DHT22;4951;50.778;7.196;2024-02-14T10:00:35;12.40;1.00
9824;DHT22;4951;50.778;7.196;2024-02-14T10:03:07;12.60;1.00
9824;DHT22;4951;50.778;7.196;2024-02-14T10:05:37;12.70;1.00
9824;DHT22;4951;50.778;7.196;2024-02-14T10:08:14;12.80;1.00
9824;DHT22;4951;50.778;7.196;2024-02-14T10:11:02;12.80;99.90
9824;DHT22;4951;50.778;7.196;2024-02-14T10:13:40;12.90;99.90
9824;DHT22;4951;50.778;7.196;2024-02-14T10:16:09;13.00;99.90
9824;DHT22;4951;50.778;7.196;2024-02-14T10:18:48;13.00;99.90
9824;DHT22;4951;50.778;7.196;2024-02-14T10:21:17;13.00;86.40
9824;DHT22;4951;50.778;7.196;2024-02-14T10:23:46;13.00;1.00
9824;DHT22;4951;50.778;7.196;2024-02-14T10:26:21;13.00;1.00
9824;DHT22;4951;50.778;7.196;2024-02-14T10:28:56;13.00;1.00
9824;DHT22;4951;50.778;7.196;2024-02-14T10:31:32;13.00;1.00
9824;DHT22;4951;50.778;7.196;2024-02-14T10:34:10;13.00;1.00
9824;DHT22;4951;50.778;7.196;2024-02-14T10:36:47;13.10;1.00
9824;DHT22;4951;50.778;7.196;2024-02-14T10:39:28;13.10;1.00
9824;DHT22;4951;50.778;7.196;2024-02-14T10:42:19;13.00;1.00
9824;DHT22;4951;50.778;7.196;2024-02-14T10:45:00;13.00;1.00
9824;DHT22;4951;50.778;7.196;2024-02-14T10:47:36;13.00;1.00
9824;DHT22;4951;50.778;7.196;2024-02-14T10:50:28;13.00;1.00
9824;DHT22;4951;50.778;7.196;2024-02-14T10:53:13;12.80;99.90
9824;DHT22;4951;50.778;7.196;2024-02-14T10:55:49;12.80;1.00
9824;DHT22;4951;50.778;7.196;2024-02-14T10:58:33;12.80;99.90
9824;DHT22;4951;50.778;7.196;2024-02-14T11:01:22;12.80;99.90
9824;DHT22;4951;50.778;7.196;2024-02-14T11:04:12;12.80;10.80
9824;DHT22;4951;50.778;7.196;2024-02-14T11:06:53;12.80;14.10
9824;DHT22;4951;50.778;7.196;2024-02-14T11:09:32;12.70;23.10
9824;DHT22;4951;50.778;7.196;2024-02-14T11:12:13;12.80;7.10
9824;DHT22;4951;50.778;7.196;2024-02-14T11:15:00;12.80;1.00
9824;DHT22;4951;50.778;7.196;2024-02-14T11:17:42;12.80;99.90
9824;DHT22;4951;50.778;7.196;2024-02-14T11:20:15;12.70;99.90
9824;DHT22;4951;50.778;7.196;2024-02-14T11:22:57;12.70;99.90
9824;DHT22;4951;50.778;7.196;2024-02-14T11:25:31;12.70;99.90
9824;DHT22;4951;50.778;7.196;2024-02-14T11:27:59;12.80;99.90
9824;DHT22;4951;50.778;7.196;2024-02-14T11:30:33;12.80;99.90
9824;DHT22;4951;50.778;7.196;2024-02-14T11:33:17;12.80;99.90
9824;DHT22;4951;50.778;7.196;2024-02-14T11:35:46;12.90;1.00
9824;DHT22;4951;50.778;7.196;2024-02-14T11:38:16;13.00;99.90
9824;DHT22;4951;50.778;7.196;2024-02-14T11:40:46;13.00;99.90
9824;DHT22;4951;50.778;7.196;2024-02-14T11:43:24;13.10;1.00
9824;DHT22;4951;50.778;7.196;2024-02-14T11:45:56;13.10;1.00
9824;DHT22;4951;50.778;7.196;2024-02-14T11:48:29;13.20;1.00
9824;DHT22;4951;50.778;7.196;2024-02-14T11:51:01;13.20;1.00
9824;DHT22;4951;50.778;7.196;2024-02-14T11:53:32;13.30;1.00
9824;DHT22;4951;50.778;7.196;2024-02-14T11:56:11;13.40;1.00
9824;DHT22;4951;50.778;7.196;2024-02-14T11:58:39;13.40;1.00
9824;DHT22;4951;50.778;7.196;2024-02-14T12:01:15;13.50;1.00
9824;DHT22;4951;50.778;7.196;2024-02-14T12:03:53;13.60;1.00
9824;DHT22;4951;50.778;7.196;2024-02-14T12:06:26;13.60;99.90
9824;DHT22;4951;50.778;7.196;2024-02-14T12:08:57;13.50;99.90
9824;DHT22;4951;50.778;7.196;2024-02-14T12:11:31;13.60;99.90
9824;DHT22;4951;50.778;7.196;2024-02-14T12:14:08;13.50;99.90
9824;DHT22;4951;50.778;7.196;2024-02-14T12:16:38;13.60;99.90
9824;DHT22;4951;50.778;7.196;2024-02-14T12:19:18;13.50;99.90
9824;DHT22;4951;50.778;7.196;2024-02-14T12:22:01;13.60;99.90
9824;DHT22;4951;50.778;7.196;2024-02-14T12:24:49;13.60;99.90
9824;DHT22;4951;50.778;7.196;2024-02-14T12:27:24;13.60;1.00
9824;DHT22;4951;50.778;7.196;2024-02-14T12:30:04;13.50;60.40
9824;DHT22;4951;50.778;7.196;2024-02-14T12:32:33;13.50;99.90
9824;DHT22;4951;50.778;7.196;2024-02-14T12:35:07;13.50;99.90
9824;DHT22;4951;50.778;7.196;2024-02-14T12:37:35;13.50;99.90
9824;DHT22;4951;50.778;7.196;2024-02-14T12:40:07;13.50;99.90
9824;DHT22;4951;50.778;7.196;2024-02-14T12:42:37;13.50;99.90
9824;DHT22;4951;50.778;7.196;2024-02-14T12:45:06;13.50;99.90
9824;DHT22;4951;50.778;7.196;2024-02-14T12:47:41;13.50;99.90
9824;DHT22;4951;50.778;7.196;2024-02-14T12:50:18;13.50;99.90
9824;DHT22;4951;50.778;7.196;2024-02-14T12:52:47;13.60;1.00
9824;DHT22;4951;50.778;7.196;2024-02-14T12:55:17;13.60;1.00
9824;DHT22;4951;50.778;7.196;2024-02-14T12:57:48;13.60;1.00
9824;DHT22;4951;50.778;7.196;2024-02-14T13:00:21;13.60;1.00
9824;DHT22;4951;50.778;7.196;2024-02-14T13:02:49;13.50;1.00
9824;DHT22;4951;50.778;7.196;2024-02-14T13:05:18;13.50;1.00
9824;DHT22;4951;50.778;7.196;2024-02-14T13:07:49;13.50;1.00
9824;DHT22;4951;50.778;7.196;2024-02-14T13:10:20;13.50;1.00
9824;DHT22;4951;50.778;7.196;2024-02-14T13:12:50;13.50;1.00
9824;DHT22;4951;50.778;7.196;2024-02-14T13:15:20;13.50;1.00
9824;DHT22;4951;50.778;7.196;2024-02-14T13:17:48;13.40;1.00
9824;DHT22;4951;50.778;7.196;2024-02-14T13:20:17;13.40;1.00
9824;DHT22;4951;50.778;7.196;2024-02-14T13:22:53;13.40;1.00
9824;DHT22;4951;50.778;7.196;2024-02-14T13:25:28;13.40;1.00
9824;DHT22;4951;50.778;7.196;2024-02-14T13:27:57;13.30;1.00
9824;DHT22;4951;50.778;7.196;2024-02-14T13:30:25;13.20;1.00
9824;DHT22;4951;50.778;7.196;2024-02-14T13:32:54;13.10;99.90
9824;DHT22;4951;50.778;7.196;2024-02-14T13:35:23;13.00;1.00
9824;DHT22;4951;50.778;7.196;2024-02-14T13:37:54;12.90;1.00
9824;DHT22;4951;50.778;7.196;2024-02-14T13:40:23;12.80;99.90
9824;DHT22;4951;50.778;7.196;2024-02-14T13:42:53;12.60;99.90
9824;DHT22;4951;50.778;7.196;2024-02-14T13:45:40;12.60;1.00
9824;DHT22;4951;50.778;7.196;2024-02-14T13:48:11;12.50;99.90
9824;DHT22;4951;50.778;7.196;2024-02-14T13:50:48;12.40;1.00
9824;DHT22;4951;50.778;7.196;2024-02-14T13:53:24;12.40;1.00
9824;DHT22;4951;50.778;7.196;2024-02-14T13:55:55;12.30;1.00
9824;DHT22;4951;50.778;7.196;2024-02-14T13:58:26;12.30;99.90
9824;DHT22;4951;50.778;7.196;2024-02-14T14:01:02;12.20;99.90
9824;DHT22;4951;50.778;7.196;2024-02-14T14:03:32;12.10;99.90
9824;DHT22;4951;50.778;7.196;2024-02-14T14:06:02;12.10;1.00
9824;DHT22;4951;50.778;7.196;2024-02-14T14:08:34;12.00;1.00
9824;DHT22;4951;50.778;7.196;2024-02-14T14:11:05;11.80;1.00
9824;DHT22;4951;50.778;7.196;2024-02-14T14:13:36;11.70;90.30
9824;DHT22;4951;50.778;7.196;2024-02-14T14:16:07;11.70;99.90
9824;DHT22;4951;50.778;7.196;2024-02-14T14:18:40;11.60;99.90
9824;DHT22;4951;50.778;7.196;2024-02-14T14:21:10;11.50;99.90
9824;DHT22;4951;50.778;7.196;2024-02-14T14:23:39;11.50;1.00
9824;DHT22;4951;50.778;7.196;2024-02-14T14:26:09;11.50;1.00
9824;DHT22;4951;50.778;7.196;2024-02-14T14:28:39;11.50;1.00
9824;DHT22;4951;50.778;7.196;2024-02-14T14:31:10;11.40;1.00
9824;DHT22;4951;50.778;7.196;2024-02-14T14:33:39;11.40;1.00
9824;DHT22;4951;50.778;7.196;2024-02-14T14:36:10;11.40;1.00
9824;DHT22;4951;50.778;7.196;2024-02-14T14:38:39;11.40;1.00
9824;DHT22;4951;50.778;7.196;2024-02-14T14:41:09;11.40;1.00
9824;DHT22;4951;50.778;7.196;2024-02-14T14:43:40;11.40;1.00
9824;DHT22;4951;50.778;7.196;2024-02-14T14:46:08;11.30;1.00
9824;DHT22;4951;50.778;7.196;2024-02-14T14:48:38;11.30;1.00
9824;DHT22;4951;50.778;7.196;2024-02-14T14:51:09;11.20;1.00
9824;DHT22;4951;50.778;7.196;2024-02-14T14:53:37;11.20;1.00
9824;DHT22;4951;50.778;7.196;2024-02-14T14:56:06;11.20;1.00
9824;DHT22;4951;50.778;7.196;2024-02-14T14:58:37;11.10;1.00
9824;DHT22;4951;50.778;7.196;2024-02-14T15:01:12;11.10;1.00
9824;DHT22;4951;50.778;7.196;2024-02-14T15:03:46;11.10;1.00
9824;DHT22;4951;50.778;7.196;2024-02-14T15:06:17;11.20;1.00
9824;DHT22;4951;50.778;7.196;2024-02-14T15:08:53;11.10;1.00
9824;DHT22;4951;50.778;7.196;2024-02-14T15:11:21;11.10;1.00
9824;DHT22;4951;50.778;7.196;2024-02-14T15:13:51;11.10;1.00
9824;DHT22;4951;50.778;7.196;2024-02-14T15:16:21;11.10;1.00
9824;DHT22;4951;50.778;7.196;2024-02-14T15:18:52;11.10;13.80
9824;DHT22;4951;50.778;7.196;2024-02-14T15:21:24;11.10;22.50
9824;DHT22;4951;50.778;7.196;2024-02-14T15:23:53;11.10;30.20
9824;DHT22;4951;50.778;7.196;2024-02-14T15:26:23;11.10;42.90
9824;DHT22;4951;50.778;7.196;2024-02-14T15:28:59;11.10;45.70
9824;DHT22;4951;50.778;7.196;2024-02-14T15:31:50;11.10;47.10
9824;DHT22;4951;50.778;7.196;2024-02-14T15:34:36;11.10;59.40
9824;DHT22;4951;50.778;7.196;2024-02-14T15:37:05;11.00;71.40
9824;DHT22;4951;50.778;7.196;2024-02-14T15:39:34;11.00;79.80
9824;DHT22;4951;50.778;7.196;2024-02-14T15:42:06;11.00;86.60
9824;DHT22;4951;50.778;7.196;2024-02-14T15:44:40;11.00;94.40
9824;DHT22;4951;50.778;7.196;2024-02-14T15:47:17;11.00;99.90
9824;DHT22;4951;50.778;7.196;2024-02-14T15:49:45;11.00;99.90
9824;DHT22;4951;50.778;7.196;2024-02-14T15:52:13;11.00;99.90
9824;DHT22;4951;50.778;7.196;2024-02-14T15:54:43;11.00;99.90
9824;DHT22;4951;50.778;7.196;2024-02-14T15:57:14;11.00;99.90
9824;DHT22;4951;50.778;7.196;2024-02-14T15:59:45;11.00;99.90
9824;DHT22;4951;50.778;7.196;2024-02-14T16:02:14;11.00;99.90
9824;DHT22;4951;50.778;7.196;2024-02-14T16:04:53;11.00;99.90
9824;DHT22;4951;50.778;7.196;2024-02-14T16:07:25;11.00;99.90
9824;DHT22;4951;50.778;7.196;2024-02-14T16:09:53;11.00;99.90
9824;DHT22;4951;50.778;7.196;2024-02-14T16:12:26;11.00;99.90
9824;DHT22;4951;50.778;7.196;2024-02-14T16:14:55;11.00;99.90
9824;DHT22;4951;50.778;7.196;2024-02-14T16:17:24;11.00;99.90
9824;DHT22;4951;50.778;7.196;2024-02-14T16:19:55;11.00;99.90
9824;DHT22;4951;50.778;7.196;2024-02-14T16:22:25;11.00;99.90
9824;DHT22;4951;50.778;7.196;2024-02-14T16:24:54;11.00;99.90
9824;DHT22;4951;50.778;7.196;2024-02-14T16:27:23;11.00;99.90
9824;DHT22;4951;50.778;7.196;2024-02-14T16:29:53;11.00;99.90
9824;DHT22;4951;50.778;7.196;2024-02-14T16:32:24;11.00;99.90
9824;DHT22;4951;50.778;7.196;2024-02-14T16:34:54;11.00;99.90
9824;DHT22;4951;50.778;7.196;2024-02-14T16:37:24;10.90;99.90
9824;DHT22;4951;50.778;7.196;2024-02-14T16:39:56;10.90;99.90
9824;DHT22;4951;50.778;7.196;2024-02-14T16:42:27;10.90;99.90
9824;DHT22;4951;50.778;7.196;2024-02-14T16:44:56;10.80;99.90
9824;DHT22;4951;50.778;7.196;2024-02-14T16:47:24;10.90;99.90
9824;DHT22;4951;50.778;7.196;2024-02-14T16:49:53;10.90;99.90